createdAt,value
2022-12-31T00:07:24.432Z,6.81
2022-12-31T00:27:24.477Z,6.79
2022-12-31T00:47:24.389Z,6.87
2022-12-31T01:07:24.387Z,7.12
2022-12-31T01:27:24.360Z,7.75
2022-12-31T01:47:24.355Z,7.91
2022-12-31T02:07:24.340Z,8.20
2022-12-31T02:47:24.305Z,8.37
2022-12-31T03:07:24.287Z,8.48
2022-12-31T03:27:24.267Z,8.45
2022-12-31T03:47:24.257Z,8.28
2022-12-31T04:07:24.241Z,8.15
2022-12-31T04:47:24.211Z,8.29
2022-12-31T05:27:24.173Z,8.72
2022-12-31T05:47:24.146Z,8.89
2022-12-31T06:07:24.141Z,8.75
2022-12-31T06:27:24.109Z,8.65
2022-12-31T06:47:24.101Z,8.52
2022-12-31T07:07:24.085Z,8.45
2022-12-31T07:27:24.074Z,8.34
2022-12-31T08:07:24.083Z,8.10
2022-12-31T08:27:24.034Z,8.22
2022-12-31T09:07:23.996Z,9.01
2022-12-31T09:47:23.952Z,8.89
2022-12-31T10:07:24.009Z,9.15
2022-12-31T10:27:23.902Z,9.59
2022-12-31T10:47:23.896Z,9.64
2022-12-31T11:47:23.832Z,10.15
2022-12-31T12:07:23.818Z,10.02
2022-12-31T12:27:23.937Z,10.59
2022-12-31T12:47:23.836Z,10.65
2022-12-31T13:27:23.724Z,10.85
2022-12-31T13:47:23.722Z,10.89
2022-12-31T14:07:23.708Z,10.75
2022-12-31T14:27:23.695Z,10.41
2022-12-31T14:47:23.706Z,10.08
2022-12-31T15:07:23.649Z,9.67
2022-12-31T15:27:23.623Z,9.27
2022-12-31T15:47:23.703Z,8.92
2022-12-31T16:07:23.707Z,8.58
2022-12-31T16:27:23.569Z,8.25
2022-12-31T16:47:23.622Z,8.10
2022-12-31T17:07:23.542Z,7.93
2022-12-31T17:27:23.511Z,7.74
2022-12-31T17:47:23.577Z,7.56
2022-12-31T18:07:23.498Z,7.36
2022-12-31T19:07:23.444Z,6.88
2022-12-31T19:27:23.429Z,6.72
2022-12-31T19:47:23.442Z,6.60
2022-12-31T20:07:23.378Z,6.40
2022-12-31T20:27:23.372Z,6.24
2022-12-31T21:07:23.398Z,5.97
2022-12-31T21:27:23.390Z,5.86
2022-12-31T22:07:23.374Z,5.64
2022-12-31T23:47:23.383Z,5.26
